Tehachapi, CA

5:51 PM PDT on May 23, 2017 (GMT -0700)
Tehachapi Municipal

Weather History for KTSP - May, 2014

Change the Weather History Date:

Thursday, May 8, 2014

  Actual Average Record
Temperature  
Mean Temperature 52 °F -  
Max Temperature 62 °F 68 °F 75 °F (2012)
Min Temperature 41 °F 44 °F 35 °F (2015)
Degree Days  
Heating Degree Days 14    
Growing Degree Days 2 (Base 50)    
Moisture  
Dew Point 35 °F    
Average Humidity 53    
Maximum Humidity 81    
Minimum Humidity 33    
Precipitation  
Precipitation 0.00 in - - ()
Sea Level Pressure  
Sea Level Pressure 30.06 in    
Wind  
Wind Speed 11 mph (WNW)    
Max Wind Speed 22 mph    
Max Gust Speed 29 mph    
Visibility 9 miles    
Events      
Averages and records for this station are not official NWS values.
T = Trace of Precipitation, MM = Missing Value Source: NWS Daily Summary

Daily Weather History Graph

Daily Weather History Graph

Search for Another Location

Airport or City:

Trip Planner

Search our weather history database for the weather conditions in past years. The results will help you decide how hot, cold, wet, or windy it might be!

Date:

Astronomy

May. 08, 2014 Rise Set
Actual Time 5:55 AM PDT 7:45 PM PDT
Civil Twilight 5:28 AM PDT 8:12 PM PDT
Nautical Twilight 4:54 AM PDT 8:46 PM PDT
Astronomical Twilight 4:19 AM PDT 9:22 PM PDT
Moon 2:03 PM PDT (5/8) 2:15 AM PDT (5/8)
Length of Visible Light 14h 44m
Length of Day
13h 49m
Waxing Gibbous, 66% of the Moon is Illuminated
May 8
Waxing Gibbous
May 14
Full
May 21
Last Quarter
May 28
New
Jun 5
First Quarter

Hourly Weather History & Observations

Time (PDT) Temp. Windchill Dew Point Humidity Pressure Visibility Wind Dir Wind Speed Gust Speed Precip Events Conditions
12:15 AM 48.2 °F - 32.0 °F 54% 30.01 in 10.0 mi WNW 9.2 mph - N/A   Partly Cloudy
12:35 AM 48.2 °F - 32.0 °F 54% 30.02 in 10.0 mi West 12.7 mph - N/A   Mostly Cloudy
12:55 AM 48.2 °F - 32.0 °F 54% 30.02 in 10.0 mi West 12.7 mph - N/A   Overcast
1:35 AM 46.4 °F 42.4 °F 33.8 °F 62% 30.02 in 10.0 mi WNW 8.1 mph - N/A   Clear
1:55 AM 46.4 °F 42.9 °F 33.8 °F 62% 30.01 in 10.0 mi NW 6.9 mph - N/A   Clear
2:15 AM 46.4 °F 41.1 °F 35.6 °F 66% 30.01 in 10.0 mi NW 11.5 mph - N/A   Clear
2:35 AM 42.8 °F 39.3 °F 33.8 °F 70% 30.01 in 10.0 mi NW 5.8 mph - N/A   Clear
2:55 AM 42.8 °F 38.0 °F 33.8 °F 70% 30.01 in 10.0 mi NW 8.1 mph - N/A   Clear
3:15 AM 41.0 °F 37.1 °F 33.8 °F 76% 30.01 in 10.0 mi West 5.8 mph - N/A   Clear
3:35 AM 41.0 °F 37.1 °F 33.8 °F 76% 30.01 in 10.0 mi NW 5.8 mph - N/A   Clear
3:55 AM 41.0 °F 37.1 °F 33.8 °F 76% 30.01 in 9.0 mi West 5.8 mph - N/A   Clear
4:15 AM 41.0 °F 38.0 °F 33.8 °F 76% 30.01 in 9.0 mi West 4.6 mph - N/A   Clear
4:35 AM 41.0 °F 38.0 °F 33.8 °F 76% 30.01 in 9.0 mi West 4.6 mph - N/A   Clear
4:55 AM 41.0 °F 38.0 °F 33.8 °F 76% 30.01 in 9.0 mi West 4.6 mph - N/A   Clear
5:15 AM 41.0 °F 39.0 °F 33.8 °F 76% 30.01 in 10.0 mi West 3.5 mph - N/A   Clear
5:35 AM 41.0 °F 39.0 °F 35.6 °F 81% 30.01 in 8.0 mi WNW 3.5 mph - N/A   Clear
5:55 AM 41.0 °F 39.0 °F 35.6 °F 81% 30.02 in 7.0 mi West 3.5 mph - N/A   Clear
6:15 AM 42.8 °F 38.6 °F 35.6 °F 76% 30.03 in 7.0 mi West 6.9 mph - N/A   Clear
6:35 AM 41.0 °F 35.8 °F 35.6 °F 81% 30.04 in 8.0 mi WSW 8.1 mph - N/A   Clear
6:55 AM 42.8 °F 39.3 °F 35.6 °F 76% 30.04 in 7.0 mi West 5.8 mph - N/A   Clear
7:15 AM 44.6 °F 40.7 °F 35.6 °F 71% 30.05 in 7.0 mi NW 6.9 mph - N/A   Clear
7:35 AM 46.4 °F 41.9 °F 35.6 °F 66% 30.05 in 7.0 mi NW 9.2 mph - N/A   Clear
7:55 AM 48.2 °F - 35.6 °F 62% 30.05 in 8.0 mi NNW 8.1 mph - N/A   Clear
8:15 AM 50.0 °F - 37.4 °F 62% 30.06 in 8.0 mi NW 8.1 mph - N/A   Clear
8:35 AM 51.8 °F - 37.4 °F 58% 30.07 in 8.0 mi NW 10.4 mph - N/A   Clear
8:55 AM 51.8 °F - 37.4 °F 58% 30.07 in 8.0 mi NW 10.4 mph - N/A   Clear
9:15 AM 53.6 °F - 37.4 °F 54% 30.08 in 9.0 mi NW 8.1 mph - N/A   Clear
9:55 AM 55.4 °F - 37.4 °F 51% 30.08 in 8.0 mi NW 10.4 mph - N/A   Clear
10:15 AM 57.2 °F - 37.4 °F 48% 30.09 in 8.0 mi NNW 15.0 mph 20.7 mph N/A   Clear
10:35 AM 59.0 °F - 37.4 °F 45% 30.09 in 9.0 mi NW 12.7 mph 19.6 mph N/A   Clear
10:55 AM 59.0 °F - 37.4 °F 45% 30.09 in 8.0 mi NNW 15.0 mph 21.9 mph N/A   Clear
11:15 AM 59.0 °F - 37.4 °F 45% 30.09 in 8.0 mi NW 16.1 mph 20.7 mph N/A   Clear
11:35 AM 59.0 °F - 39.2 °F 48% 30.09 in 8.0 mi NNW 15.0 mph - N/A   Clear
11:55 AM 59.0 °F - 39.2 °F 48% 30.09 in 8.0 mi NW 15.0 mph 21.9 mph N/A   Clear
12:15 PM 60.8 °F - 39.2 °F 45% 30.08 in 8.0 mi NNW 15.0 mph - N/A   Clear
12:35 PM 60.8 °F - 39.2 °F 45% 30.09 in 8.0 mi NNW 19.6 mph - N/A   Clear
12:55 PM 60.8 °F - 39.2 °F 45% 30.09 in 9.0 mi NW 18.4 mph 23.0 mph N/A   Clear
1:35 PM 60.8 °F - 39.2 °F 45% 30.09 in 8.0 mi NW 20.7 mph 25.3 mph N/A   Clear
1:55 PM 62.6 °F - 39.2 °F 42% 30.09 in 9.0 mi NW 21.9 mph 26.5 mph N/A   Clear
2:15 PM 62.6 °F - 39.2 °F 42% 30.09 in 10.0 mi NW 20.7 mph 26.5 mph N/A   Clear
2:35 PM 62.6 °F - 39.2 °F 42% 30.09 in 9.0 mi NW 17.3 mph 26.5 mph N/A   Clear
2:55 PM 62.6 °F - 37.4 °F 39% 30.08 in 9.0 mi NW 18.4 mph 24.2 mph N/A   Clear
3:15 PM 62.6 °F - 37.4 °F 39% 30.08 in 9.0 mi NW 18.4 mph 27.6 mph N/A   Clear
3:35 PM 62.6 °F - 35.6 °F 37% 30.07 in 9.0 mi NW 20.7 mph 26.5 mph N/A   Clear
3:55 PM 62.6 °F - 35.6 °F 37% 30.07 in 9.0 mi NW 17.3 mph 23.0 mph N/A   Clear
4:15 PM 62.6 °F - 35.6 °F 37% 30.07 in 9.0 mi NW 20.7 mph 25.3 mph N/A   Clear
4:35 PM 62.6 °F - 35.6 °F 37% 30.07 in 9.0 mi NW 16.1 mph 25.3 mph N/A   Clear
4:55 PM 62.6 °F - 35.6 °F 37% 30.07 in 9.0 mi NW 20.7 mph 28.8 mph N/A   Clear
5:15 PM 62.6 °F - 33.8 °F 34% 30.07 in 9.0 mi NW 19.6 mph 27.6 mph N/A   Clear
5:35 PM 60.8 °F - 32.0 °F 34% 30.07 in 10.0 mi NW 19.6 mph 28.8 mph N/A   Clear
5:55 PM 59.0 °F - 32.0 °F 36% 30.07 in 9.0 mi NW 21.9 mph 28.8 mph N/A   Clear
6:15 PM 59.0 °F - 32.0 °F 36% 30.07 in 10.0 mi NW 17.3 mph 25.3 mph N/A   Clear
6:35 PM 59.0 °F - 32.0 °F 36% 30.07 in 10.0 mi NW 13.8 mph 23.0 mph N/A   Clear
6:55 PM 57.2 °F - 30.2 °F 36% 30.07 in 10.0 mi NW 15.0 mph 21.9 mph N/A   Clear
7:15 PM 57.2 °F - 28.4 °F 33% 30.08 in 10.0 mi WNW 17.3 mph 21.9 mph N/A   Clear
7:35 PM 57.2 °F - 32.0 °F 38% 30.08 in 9.0 mi WNW 11.5 mph 19.6 mph N/A   Clear
7:55 PM 55.4 °F - 30.2 °F 38% 30.08 in 10.0 mi WNW 8.1 mph - N/A   Clear
8:15 PM 53.6 °F - 30.2 °F 41% 30.08 in 10.0 mi WNW 5.8 mph - N/A   Clear
8:35 PM 51.8 °F - 30.2 °F 44% 30.08 in 10.0 mi West 5.8 mph - N/A   Clear
8:55 PM 51.8 °F - 32.0 °F 47% 30.09 in 10.0 mi West 5.8 mph - N/A   Clear
9:15 PM 51.8 °F - 32.0 °F 47% 30.09 in 10.0 mi West 4.6 mph - N/A   Clear
9:35 PM 50.0 °F - 33.8 °F 54% 30.09 in 10.0 mi NW 6.9 mph - N/A   Clear
10:15 PM 48.2 °F - 33.8 °F 58% 30.10 in 10.0 mi West 5.8 mph - N/A   Clear
10:35 PM 50.0 °F - 32.0 °F 50% 30.11 in 10.0 mi West 5.8 mph - N/A   Clear
10:55 PM 50.0 °F - 32.0 °F 50% 30.11 in 10.0 mi West 8.1 mph - N/A   Clear
11:15 PM 48.2 °F - 32.0 °F 54% 30.11 in 10.0 mi West 6.9 mph - N/A   Clear
11:35 PM 50.0 °F - 32.0 °F 50% 30.12 in 10.0 mi WSW 8.1 mph - N/A   Clear
11:55 PM 51.8 °F - 33.8 °F 50% 30.12 in 10.0 mi WSW 6.9 mph - N/A   Partly Cloudy